KSNS

Salinas Municipal Airport

Salinas, California, USA
METAR KSNS 151553Z 34005KT 7SM OVC011 16/13 A2997 RMK AO2 SLP157 T01610133
Observed Flight Rules
Aug-15 @ 15:53 UTC (an hour ago) Marginal Visual Flight Rules
Wind Visibility Clouds
340° at 5 knots 7 miles
  • Overcast at 1,100' AGL
Temperatures Readings
Current 16°C / 61°F
Dewpoint 13°C / 55°F
Humidity 83%
Altimeter 29.97" Hg
Pressure 1015.7 hPa
Elevation 30
METAR KSNS 151553Z 34005KT 7SM OVC011 16/13 A2997 RMK AO2 SLP157 T01610133
Observed Flight Rules
Aug-15 @ 15:53 UTC
(an hour ago)
MVFR
Wind Visibility
340° at 5 knots 7 miles
Clouds
  • Overcast at 1,100' AGL
Temperature Dewpoint
16°C / 61°F 13°C / 55°F
Humidity Altimeter Pressure
83% 29.97" Hg 1015.7 hPa